sensor_id;sensor_type;location;lat;lon;timestamp;P1;durP1;ratioP1;P2;durP2;ratioP2
36449;SDS011;22475;51.390;7.180;2022-08-01T00:01:55;1.65;;;1.35;;
36449;SDS011;22475;51.390;7.180;2022-08-01T00:04:22;1.38;;;1.35;;
36449;SDS011;22475;51.390;7.180;2022-08-01T00:06:50;2.78;;;2.00;;
36449;SDS011;22475;51.390;7.180;2022-08-01T00:09:17;3.67;;;1.42;;
36449;SDS011;22475;51.390;7.180;2022-08-01T00:11:44;1.70;;;1.60;;
36449;SDS011;22475;51.390;7.180;2022-08-01T00:14:11;1.52;;;1.42;;
36449;SDS011;22475;51.390;7.180;2022-08-01T00:16:38;2.00;;;1.40;;
36449;SDS011;22475;51.390;7.180;2022-08-01T00:19:05;2.25;;;2.08;;
36449;SDS011;22475;51.390;7.180;2022-08-01T00:21:32;1.42;;;1.33;;
36449;SDS011;22475;51.390;7.180;2022-08-01T00:24:00;2.55;;;1.90;;
36449;SDS011;22475;51.390;7.180;2022-08-01T00:26:27;2.88;;;2.67;;
36449;SDS011;22475;51.390;7.180;2022-08-01T00:28:54;1.77;;;1.67;;
36449;SDS011;22475;51.390;7.180;2022-08-01T00:31:21;1.92;;;1.83;;
36449;SDS011;22475;51.390;7.180;2022-08-01T00:33:48;2.45;;;1.67;;
36449;SDS011;22475;51.390;7.180;2022-08-01T00:36:14;2.50;;;2.17;;
36449;SDS011;22475;51.390;7.180;2022-08-01T00:38:41;2.20;;;1.98;;
36449;SDS011;22475;51.390;7.180;2022-08-01T00:41:10;2.40;;;2.20;;
36449;SDS011;22475;51.390;7.180;2022-08-01T00:43:37;2.28;;;2.17;;
36449;SDS011;22475;51.390;7.180;2022-08-01T00:46:03;2.75;;;1.83;;
36449;SDS011;22475;51.390;7.180;2022-08-01T00:48:30;1.77;;;1.60;;
36449;SDS011;22475;51.390;7.180;2022-08-01T00:50:57;2.65;;;2.45;;
36449;SDS011;22475;51.390;7.180;2022-08-01T00:53:24;2.90;;;1.90;;
36449;SDS011;22475;51.390;7.180;2022-08-01T00:55:55;1.98;;;1.88;;
36449;SDS011;22475;51.390;7.180;2022-08-01T00:58:24;3.30;;;3.10;;
36449;SDS011;22475;51.390;7.180;2022-08-01T01:00:53;2.97;;;2.75;;
36449;SDS011;22475;51.390;7.180;2022-08-01T01:03:21;4.32;;;3.97;;
36449;SDS011;22475;51.390;7.180;2022-08-01T01:05:51;2.00;;;1.85;;
36449;SDS011;22475;51.390;7.180;2022-08-01T01:08:30;1.90;;;1.73;;
36449;SDS011;22475;51.390;7.180;2022-08-01T01:11:08;2.58;;;2.25;;
36449;SDS011;22475;51.390;7.180;2022-08-01T01:13:41;2.90;;;2.60;;
36449;SDS011;22475;51.390;7.180;2022-08-01T01:16:13;2.50;;;2.35;;
36449;SDS011;22475;51.390;7.180;2022-08-01T01:18:43;3.97;;;2.27;;
36449;SDS011;22475;51.390;7.180;2022-08-01T01:21:26;2.85;;;2.65;;
36449;SDS011;22475;51.390;7.180;2022-08-01T01:24:03;2.90;;;2.70;;
36449;SDS011;22475;51.390;7.180;2022-08-01T01:26:39;2.17;;;2.03;;
36449;SDS011;22475;51.390;7.180;2022-08-01T01:29:15;2.13;;;2.03;;
36449;SDS011;22475;51.390;7.180;2022-08-01T01:31:46;2.38;;;2.17;;
36449;SDS011;22475;51.390;7.180;2022-08-01T01:34:17;3.67;;;3.38;;
36449;SDS011;22475;51.390;7.180;2022-08-01T01:36:47;2.97;;;2.30;;
36449;SDS011;22475;51.390;7.180;2022-08-01T01:39:18;2.88;;;2.67;;
36449;SDS011;22475;51.390;7.180;2022-08-01T01:41:46;2.08;;;1.98;;
36449;SDS011;22475;51.390;7.180;2022-08-01T01:44:16;2.50;;;2.30;;
36449;SDS011;22475;51.390;7.180;2022-08-01T01:46:44;2.72;;;2.53;;
36449;SDS011;22475;51.390;7.180;2022-08-01T01:49:13;3.10;;;2.40;;
36449;SDS011;22475;51.390;7.180;2022-08-01T01:51:42;3.55;;;2.90;;
36449;SDS011;22475;51.390;7.180;2022-08-01T01:54:12;2.45;;;2.30;;
36449;SDS011;22475;51.390;7.180;2022-08-01T01:56:39;3.55;;;2.58;;
36449;SDS011;22475;51.390;7.180;2022-08-01T01:59:15;3.55;;;3.25;;
36449;SDS011;22475;51.390;7.180;2022-08-01T02:01:46;3.13;;;2.78;;
36449;SDS011;22475;51.390;7.180;2022-08-01T02:04:15;3.17;;;2.97;;
36449;SDS011;22475;51.390;7.180;2022-08-01T02:06:43;3.17;;;2.97;;
36449;SDS011;22475;51.390;7.180;2022-08-01T02:09:11;5.78;;;3.42;;
36449;SDS011;22475;51.390;7.180;2022-08-01T02:11:42;3.20;;;2.92;;
36449;SDS011;22475;51.390;7.180;2022-08-01T02:14:10;3.25;;;2.95;;
36449;SDS011;22475;51.390;7.180;2022-08-01T02:16:40;2.50;;;2.33;;
36449;SDS011;22475;51.390;7.180;2022-08-01T02:19:10;4.78;;;3.20;;
36449;SDS011;22475;51.390;7.180;2022-08-01T02:21:39;3.05;;;2.55;;
36449;SDS011;22475;51.390;7.180;2022-08-01T02:24:12;2.85;;;2.65;;
36449;SDS011;22475;51.390;7.180;2022-08-01T02:26:41;3.88;;;3.58;;
36449;SDS011;22475;51.390;7.180;2022-08-01T02:29:13;3.15;;;2.95;;
36449;SDS011;22475;51.390;7.180;2022-08-01T02:31:47;3.50;;;3.28;;
36449;SDS011;22475;51.390;7.180;2022-08-01T02:34:18;4.07;;;3.15;;
36449;SDS011;22475;51.390;7.180;2022-08-01T02:36:47;4.55;;;4.15;;
36449;SDS011;22475;51.390;7.180;2022-08-01T02:39:16;3.80;;;3.45;;
36449;SDS011;22475;51.390;7.180;2022-08-01T02:41:47;3.92;;;3.50;;
36449;SDS011;22475;51.390;7.180;2022-08-01T02:44:21;4.35;;;3.45;;
36449;SDS011;22475;51.390;7.180;2022-08-01T02:46:53;3.53;;;3.33;;
36449;SDS011;22475;51.390;7.180;2022-08-01T02:49:27;4.55;;;2.90;;
36449;SDS011;22475;51.390;7.180;2022-08-01T02:51:56;7.10;;;4.10;;
36449;SDS011;22475;51.390;7.180;2022-08-01T02:54:25;4.82;;;4.20;;
36449;SDS011;22475;51.390;7.180;2022-08-01T02:56:52;7.97;;;4.65;;
36449;SDS011;22475;51.390;7.180;2022-08-01T02:59:21;3.33;;;3.03;;
36449;SDS011;22475;51.390;7.180;2022-08-01T03:01:54;4.18;;;3.50;;
36449;SDS011;22475;51.390;7.180;2022-08-01T03:04:23;5.07;;;3.42;;
36449;SDS011;22475;51.390;7.180;2022-08-01T03:06:51;4.47;;;4.07;;
36449;SDS011;22475;51.390;7.180;2022-08-01T03:09:20;3.92;;;3.63;;
36449;SDS011;22475;51.390;7.180;2022-08-01T03:11:48;5.82;;;5.22;;
36449;SDS011;22475;51.390;7.180;2022-08-01T03:14:17;4.32;;;3.92;;
36449;SDS011;22475;51.390;7.180;2022-08-01T03:16:46;5.67;;;5.17;;
36449;SDS011;22475;51.390;7.180;2022-08-01T03:19:18;5.85;;;5.07;;
36449;SDS011;22475;51.390;7.180;2022-08-01T03:21:46;3.58;;;3.28;;
36449;SDS011;22475;51.390;7.180;2022-08-01T03:24:15;3.97;;;3.65;;
36449;SDS011;22475;51.390;7.180;2022-08-01T03:26:44;3.40;;;3.10;;
36449;SDS011;22475;51.390;7.180;2022-08-01T03:29:12;4.82;;;4.07;;
36449;SDS011;22475;51.390;7.180;2022-08-01T03:31:43;6.75;;;3.40;;
36449;SDS011;22475;51.390;7.180;2022-08-01T03:34:11;6.35;;;3.38;;
36449;SDS011;22475;51.390;7.180;2022-08-01T03:36:41;4.03;;;3.65;;
36449;SDS011;22475;51.390;7.180;2022-08-01T03:39:12;4.07;;;3.75;;
36449;SDS011;22475;51.390;7.180;2022-08-01T03:41:41;7.25;;;4.30;;
36449;SDS011;22475;51.390;7.180;2022-08-01T03:44:13;4.00;;;3.67;;
36449;SDS011;22475;51.390;7.180;2022-08-01T03:46:43;6.95;;;4.47;;
36449;SDS011;22475;51.390;7.180;2022-08-01T03:49:14;5.97;;;5.28;;
36449;SDS011;22475;51.390;7.180;2022-08-01T03:51:45;8.00;;;5.03;;
36449;SDS011;22475;51.390;7.180;2022-08-01T03:54:14;5.03;;;4.50;;
36449;SDS011;22475;51.390;7.180;2022-08-01T03:56:43;5.40;;;4.90;;
36449;SDS011;22475;51.390;7.180;2022-08-01T03:59:14;7.93;;;4.30;;
36449;SDS011;22475;51.390;7.180;2022-08-01T04:01:41;4.75;;;4.15;;
36449;SDS011;22475;51.390;7.180;2022-08-01T04:04:10;5.25;;;4.75;;
36449;SDS011;22475;51.390;7.180;2022-08-01T04:06:37;5.70;;;5.07;;
36449;SDS011;22475;51.390;7.180;2022-08-01T04:09:07;7.30;;;4.28;;
36449;SDS011;22475;51.390;7.180;2022-08-01T04:11:34;4.35;;;3.95;;
36449;SDS011;22475;51.390;7.180;2022-08-01T04:14:01;6.57;;;5.00;;
36449;SDS011;22475;51.390;7.180;2022-08-01T04:16:28;5.78;;;5.07;;
36449;SDS011;22475;51.390;7.180;2022-08-01T04:18:55;5.20;;;4.88;;
36449;SDS011;22475;51.390;7.180;2022-08-01T04:21:23;5.63;;;5.18;;
36449;SDS011;22475;51.390;7.180;2022-08-01T04:23:54;6.07;;;4.85;;
36449;SDS011;22475;51.390;7.180;2022-08-01T04:26:25;5.75;;;4.32;;
36449;SDS011;22475;51.390;7.180;2022-08-01T04:28:55;5.13;;;4.63;;
36449;SDS011;22475;51.390;7.180;2022-08-01T04:31:22;7.55;;;6.35;;
36449;SDS011;22475;51.390;7.180;2022-08-01T04:33:52;5.10;;;4.60;;
36449;SDS011;22475;51.390;7.180;2022-08-01T04:36:22;8.27;;;5.07;;
36449;SDS011;22475;51.390;7.180;2022-08-01T04:38:50;4.60;;;4.20;;
36449;SDS011;22475;51.390;7.180;2022-08-01T04:41:21;6.10;;;5.55;;
36449;SDS011;22475;51.390;7.180;2022-08-01T04:43:51;4.80;;;4.40;;
36449;SDS011;22475;51.390;7.180;2022-08-01T04:46:19;6.00;;;5.50;;
36449;SDS011;22475;51.390;7.180;2022-08-01T04:48:46;5.18;;;4.78;;
36449;SDS011;22475;51.390;7.180;2022-08-01T04:51:15;5.57;;;5.10;;
36449;SDS011;22475;51.390;7.180;2022-08-01T04:53:42;6.30;;;5.70;;
36449;SDS011;22475;51.390;7.180;2022-08-01T04:56:10;9.30;;;7.20;;
36449;SDS011;22475;51.390;7.180;2022-08-01T04:58:38;10.00;;;5.35;;
36449;SDS011;22475;51.390;7.180;2022-08-01T05:01:07;5.22;;;4.72;;
36449;SDS011;22475;51.390;7.180;2022-08-01T05:03:35;6.95;;;6.32;;
36449;SDS011;22475;51.390;7.180;2022-08-01T05:06:02;8.00;;;6.40;;
36449;SDS011;22475;51.390;7.180;2022-08-01T05:08:29;9.00;;;6.90;;
36449;SDS011;22475;51.390;7.180;2022-08-01T05:10:56;9.73;;;7.20;;
36449;SDS011;22475;51.390;7.180;2022-08-01T05:13:23;8.18;;;6.03;;
36449;SDS011;22475;51.390;7.180;2022-08-01T05:15:50;6.10;;;5.50;;
36449;SDS011;22475;51.390;7.180;2022-08-01T05:18:19;6.50;;;5.93;;
36449;SDS011;22475;51.390;7.180;2022-08-01T05:20:46;8.55;;;6.55;;
36449;SDS011;22475;51.390;7.180;2022-08-01T05:23:13;6.93;;;6.15;;
36449;SDS011;22475;51.390;7.180;2022-08-01T05:25:40;7.85;;;6.63;;
36449;SDS011;22475;51.390;7.180;2022-08-01T05:28:07;10.38;;;6.57;;
36449;SDS011;22475;51.390;7.180;2022-08-01T05:30:34;6.78;;;5.10;;
36449;SDS011;22475;51.390;7.180;2022-08-01T05:33:01;4.82;;;4.47;;
36449;SDS011;22475;51.390;7.180;2022-08-01T05:35:29;8.07;;;5.60;;
36449;SDS011;22475;51.390;7.180;2022-08-01T05:37:56;7.53;;;5.78;;
36449;SDS011;22475;51.390;7.180;2022-08-01T05:40:23;6.57;;;5.93;;
36449;SDS011;22475;51.390;7.180;2022-08-01T05:42:49;8.15;;;7.35;;
36449;SDS011;22475;51.390;7.180;2022-08-01T05:45:16;9.57;;;7.68;;
36449;SDS011;22475;51.390;7.180;2022-08-01T05:47:43;7.00;;;6.25;;
36449;SDS011;22475;51.390;7.180;2022-08-01T05:50:10;8.27;;;7.47;;
36449;SDS011;22475;51.390;7.180;2022-08-01T05:52:38;7.97;;;6.75;;
36449;SDS011;22475;51.390;7.180;2022-08-01T05:55:06;9.20;;;7.13;;
36449;SDS011;22475;51.390;7.180;2022-08-01T05:57:34;7.32;;;6.65;;
36449;SDS011;22475;51.390;7.180;2022-08-01T06:00:01;7.38;;;6.68;;
36449;SDS011;22475;51.390;7.180;2022-08-01T06:02:28;8.32;;;7.63;;
36449;SDS011;22475;51.390;7.180;2022-08-01T06:04:55;7.80;;;7.03;;
36449;SDS011;22475;51.390;7.180;2022-08-01T06:07:22;8.05;;;7.25;;
36449;SDS011;22475;51.390;7.180;2022-08-01T06:09:50;8.90;;;6.88;;
36449;SDS011;22475;51.390;7.180;2022-08-01T06:12:17;8.68;;;6.40;;
36449;SDS011;22475;51.390;7.180;2022-08-01T06:14:44;6.03;;;5.43;;
36449;SDS011;22475;51.390;7.180;2022-08-01T06:17:10;6.90;;;6.30;;
36449;SDS011;22475;51.390;7.180;2022-08-01T06:19:37;7.43;;;6.70;;
36449;SDS011;22475;51.390;7.180;2022-08-01T06:22:04;7.45;;;6.57;;
36449;SDS011;22475;51.390;7.180;2022-08-01T06:24:31;10.57;;;7.07;;
36449;SDS011;22475;51.390;7.180;2022-08-01T06:26:59;8.00;;;7.28;;
36449;SDS011;22475;51.390;7.180;2022-08-01T06:29:26;6.75;;;6.13;;
36449;SDS011;22475;51.390;7.180;2022-08-01T06:31:56;7.03;;;6.05;;
36449;SDS011;22475;51.390;7.180;2022-08-01T06:34:22;6.50;;;5.72;;
36449;SDS011;22475;51.390;7.180;2022-08-01T06:36:49;6.82;;;6.22;;
36449;SDS011;22475;51.390;7.180;2022-08-01T06:39:16;5.95;;;5.45;;
36449;SDS011;22475;51.390;7.180;2022-08-01T06:41:43;6.38;;;5.65;;
36449;SDS011;22475;51.390;7.180;2022-08-01T06:44:12;7.88;;;6.55;;
36449;SDS011;22475;51.390;7.180;2022-08-01T06:46:39;6.85;;;5.85;;
36449;SDS011;22475;51.390;7.180;2022-08-01T06:49:08;7.90;;;5.93;;
36449;SDS011;22475;51.390;7.180;2022-08-01T06:51:34;5.95;;;5.45;;
36449;SDS011;22475;51.390;7.180;2022-08-01T06:54:01;8.07;;;7.32;;
36449;SDS011;22475;51.390;7.180;2022-08-01T06:56:28;6.82;;;5.90;;
36449;SDS011;22475;51.390;7.180;2022-08-01T06:58:55;7.57;;;6.88;;
36449;SDS011;22475;51.390;7.180;2022-08-01T07:01:27;6.45;;;5.95;;
36449;SDS011;22475;51.390;7.180;2022-08-01T07:03:54;7.13;;;6.45;;
36449;SDS011;22475;51.390;7.180;2022-08-01T07:06:21;7.88;;;7.07;;
36449;SDS011;22475;51.390;7.180;2022-08-01T07:08:49;6.13;;;5.60;;
36449;SDS011;22475;51.390;7.180;2022-08-01T07:11:16;5.25;;;4.85;;
36449;SDS011;22475;51.390;7.180;2022-08-01T07:13:43;5.95;;;5.22;;
36449;SDS011;22475;51.390;7.180;2022-08-01T07:16:10;6.20;;;5.60;;
36449;SDS011;22475;51.390;7.180;2022-08-01T07:18:39;6.10;;;5.53;;
36449;SDS011;22475;51.390;7.180;2022-08-01T07:21:06;6.15;;;5.68;;
36449;SDS011;22475;51.390;7.180;2022-08-01T07:23:32;5.13;;;4.72;;
36449;SDS011;22475;51.390;7.180;2022-08-01T07:25:59;5.40;;;4.93;;
36449;SDS011;22475;51.390;7.180;2022-08-01T07:28:27;7.55;;;4.82;;
36449;SDS011;22475;51.390;7.180;2022-08-01T07:30:54;4.88;;;4.47;;
36449;SDS011;22475;51.390;7.180;2022-08-01T07:33:21;5.68;;;5.15;;
36449;SDS011;22475;51.390;7.180;2022-08-01T07:35:50;5.47;;;4.97;;
36449;SDS011;22475;51.390;7.180;2022-08-01T07:38:17;5.85;;;5.35;;
36449;SDS011;22475;51.390;7.180;2022-08-01T07:40:44;6.25;;;5.45;;
36449;SDS011;22475;51.390;7.180;2022-08-01T07:43:10;4.97;;;4.68;;
36449;SDS011;22475;51.390;7.180;2022-08-01T07:45:37;3.97;;;3.75;;
36449;SDS011;22475;51.390;7.180;2022-08-01T07:48:06;4.47;;;4.18;;
36449;SDS011;22475;51.390;7.180;2022-08-01T07:50:33;4.65;;;4.25;;
36449;SDS011;22475;51.390;7.180;2022-08-01T07:53:02;5.40;;;5.00;;
36449;SDS011;22475;51.390;7.180;2022-08-01T07:55:29;5.32;;;4.93;;
36449;SDS011;22475;51.390;7.180;2022-08-01T07:57:56;5.03;;;4.63;;
36449;SDS011;22475;51.390;7.180;2022-08-01T08:00:23;4.75;;;4.38;;
36449;SDS011;22475;51.390;7.180;2022-08-01T08:02:50;5.00;;;4.53;;
36449;SDS011;22475;51.390;7.180;2022-08-01T08:05:18;5.53;;;5.13;;
36449;SDS011;22475;51.390;7.180;2022-08-01T08:07:45;5.15;;;4.75;;
36449;SDS011;22475;51.390;7.180;2022-08-01T08:10:14;4.07;;;3.75;;
36449;SDS011;22475;51.390;7.180;2022-08-01T08:12:41;6.22;;;4.15;;
36449;SDS011;22475;51.390;7.180;2022-08-01T08:15:08;5.72;;;5.28;;
36449;SDS011;22475;51.390;7.180;2022-08-01T08:17:35;4.55;;;4.22;;
36449;SDS011;22475;51.390;7.180;2022-08-01T08:20:03;4.20;;;3.92;;
36449;SDS011;22475;51.390;7.180;2022-08-01T08:22:31;4.72;;;4.32;;
36449;SDS011;22475;51.390;7.180;2022-08-01T08:24:58;4.32;;;3.92;;
36449;SDS011;22475;51.390;7.180;2022-08-01T08:27:27;4.45;;;4.15;;
36449;SDS011;22475;51.390;7.180;2022-08-01T08:29:54;4.47;;;4.07;;
36449;SDS011;22475;51.390;7.180;2022-08-01T08:32:20;4.35;;;3.95;;
36449;SDS011;22475;51.390;7.180;2022-08-01T08:34:47;4.05;;;3.75;;
36449;SDS011;22475;51.390;7.180;2022-08-01T08:37:14;4.13;;;3.70;;
36449;SDS011;22475;51.390;7.180;2022-08-01T08:39:42;3.92;;;3.63;;
36449;SDS011;22475;51.390;7.180;2022-08-01T08:42:09;4.03;;;3.80;;
36449;SDS011;22475;51.390;7.180;2022-08-01T08:44:38;3.72;;;3.42;;
36449;SDS011;22475;51.390;7.180;2022-08-01T08:47:06;4.10;;;3.80;;
36449;SDS011;22475;51.390;7.180;2022-08-01T08:49:35;3.30;;;3.10;;
36449;SDS011;22475;51.390;7.180;2022-08-01T08:52:04;3.85;;;3.65;;
36449;SDS011;22475;51.390;7.180;2022-08-01T08:54:31;4.05;;;3.65;;
36449;SDS011;22475;51.390;7.180;2022-08-01T08:57:00;5.05;;;4.65;;
36449;SDS011;22475;51.390;7.180;2022-08-01T08:59:27;4.05;;;3.75;;
36449;SDS011;22475;51.390;7.180;2022-08-01T09:01:56;5.25;;;4.15;;
36449;SDS011;22475;51.390;7.180;2022-08-01T09:04:23;3.83;;;3.53;;
36449;SDS011;22475;51.390;7.180;2022-08-01T09:06:51;3.67;;;3.38;;
36449;SDS011;22475;51.390;7.180;2022-08-01T09:09:18;4.43;;;4.13;;
36449;SDS011;22475;51.390;7.180;2022-08-01T09:11:45;4.05;;;3.75;;
36449;SDS011;22475;51.390;7.180;2022-08-01T09:14:12;4.13;;;3.83;;
36449;SDS011;22475;51.390;7.180;2022-08-01T09:16:43;3.78;;;3.50;;
36449;SDS011;22475;51.390;7.180;2022-08-01T09:19:13;3.40;;;3.20;;
36449;SDS011;22475;51.390;7.180;2022-08-01T09:21:56;3.50;;;3.30;;
36449;SDS011;22475;51.390;7.180;2022-08-01T09:24:24;3.30;;;3.00;;
36449;SDS011;22475;51.390;7.180;2022-08-01T09:26:52;5.25;;;3.78;;
36449;SDS011;22475;51.390;7.180;2022-08-01T09:29:20;3.72;;;3.28;;
36449;SDS011;22475;51.390;7.180;2022-08-01T09:31:49;3.78;;;3.50;;
36449;SDS011;22475;51.390;7.180;2022-08-01T09:34:23;3.47;;;3.28;;
36449;SDS011;22475;51.390;7.180;2022-08-01T09:36:52;3.85;;;3.65;;
36449;SDS011;22475;51.390;7.180;2022-08-01T09:39:21;7.53;;;3.90;;
36449;SDS011;22475;51.390;7.180;2022-08-01T09:41:50;3.15;;;2.85;;
36449;SDS011;22475;51.390;7.180;2022-08-01T09:44:18;3.95;;;3.65;;
36449;SDS011;22475;51.390;7.180;2022-08-01T09:46:48;3.53;;;3.33;;
36449;SDS011;22475;51.390;7.180;2022-08-01T09:49:27;3.78;;;3.50;;
36449;SDS011;22475;51.390;7.180;2022-08-01T09:51:55;3.65;;;3.25;;
36449;SDS011;22475;51.390;7.180;2022-08-01T09:54:28;4.20;;;3.85;;
36449;SDS011;22475;51.390;7.180;2022-08-01T09:57:06;3.80;;;3.50;;
36449;SDS011;22475;51.390;7.180;2022-08-01T09:59:39;3.38;;;3.17;;
36449;SDS011;22475;51.390;7.180;2022-08-01T10:02:08;3.53;;;3.22;;
36449;SDS011;22475;51.390;7.180;2022-08-01T10:04:46;3.00;;;2.80;;
36449;SDS011;22475;51.390;7.180;2022-08-01T10:07:14;4.43;;;4.13;;
36449;SDS011;22475;51.390;7.180;2022-08-01T10:09:42;3.63;;;3.40;;
36449;SDS011;22475;51.390;7.180;2022-08-01T10:12:10;8.15;;;3.53;;
36449;SDS011;22475;51.390;7.180;2022-08-01T10:14:38;4.85;;;4.40;;
36449;SDS011;22475;51.390;7.180;2022-08-01T10:17:07;3.80;;;3.50;;
36449;SDS011;22475;51.390;7.180;2022-08-01T10:19:35;4.30;;;4.00;;
36449;SDS011;22475;51.390;7.180;2022-08-01T10:22:04;3.67;;;3.47;;
36449;SDS011;22475;51.390;7.180;2022-08-01T10:24:36;3.33;;;3.13;;
36449;SDS011;22475;51.390;7.180;2022-08-01T10:27:05;3.45;;;3.25;;
36449;SDS011;22475;51.390;7.180;2022-08-01T10:29:35;3.30;;;3.10;;
36449;SDS011;22475;51.390;7.180;2022-08-01T10:32:04;3.70;;;3.25;;
36449;SDS011;22475;51.390;7.180;2022-08-01T10:34:34;4.00;;;3.63;;
36449;SDS011;22475;51.390;7.180;2022-08-01T10:37:02;3.20;;;3.00;;
36449;SDS011;22475;51.390;7.180;2022-08-01T10:39:31;3.50;;;3.20;;
36449;SDS011;22475;51.390;7.180;2022-08-01T10:42:01;4.10;;;3.80;;
36449;SDS011;22475;51.390;7.180;2022-08-01T10:44:29;3.08;;;2.88;;
36449;SDS011;22475;51.390;7.180;2022-08-01T10:46:57;2.63;;;2.47;;
36449;SDS011;22475;51.390;7.180;2022-08-01T10:49:30;3.13;;;2.92;;
36449;SDS011;22475;51.390;7.180;2022-08-01T10:52:00;4.05;;;3.65;;
36449;SDS011;22475;51.390;7.180;2022-08-01T10:54:30;3.53;;;3.22;;
36449;SDS011;22475;51.390;7.180;2022-08-01T10:57:05;3.13;;;2.92;;
36449;SDS011;22475;51.390;7.180;2022-08-01T10:59:33;3.35;;;3.05;;
36449;SDS011;22475;51.390;7.180;2022-08-01T11:02:05;3.45;;;3.25;;
36449;SDS011;22475;51.390;7.180;2022-08-01T11:04:34;3.30;;;3.10;;
36449;SDS011;22475;51.390;7.180;2022-08-01T11:07:10;3.22;;;3.03;;
36449;SDS011;22475;51.390;7.180;2022-08-01T11:09:43;4.05;;;3.22;;
36449;SDS011;22475;51.390;7.180;2022-08-01T11:17:49;3.08;;;2.88;;
36449;SDS011;22475;51.390;7.180;2022-08-01T11:20:17;2.90;;;2.70;;
36449;SDS011;22475;51.390;7.180;2022-08-01T11:28:40;2.47;;;2.38;;
36449;SDS011;22475;51.390;7.180;2022-08-01T11:33:53;3.17;;;2.97;;
36449;SDS011;22475;51.390;7.180;2022-08-01T11:36:20;2.60;;;2.50;;
36449;SDS011;22475;51.390;7.180;2022-08-01T11:38:49;2.55;;;2.45;;
36449;SDS011;22475;51.390;7.180;2022-08-01T11:41:38;3.10;;;2.90;;
36449;SDS011;22475;51.390;7.180;2022-08-01T11:44:06;3.60;;;3.33;;
36449;SDS011;22475;51.390;7.180;2022-08-01T11:49:43;2.70;;;2.50;;
36449;SDS011;22475;51.390;7.180;2022-08-01T11:52:23;6.28;;;2.92;;
36449;SDS011;22475;51.390;7.180;2022-08-01T11:54:52;3.05;;;2.85;;
36449;SDS011;22475;51.390;7.180;2022-08-01T11:57:23;3.17;;;2.97;;
36449;SDS011;22475;51.390;7.180;2022-08-01T11:59:52;2.47;;;2.38;;
36449;SDS011;22475;51.390;7.180;2022-08-01T12:02:23;2.33;;;2.13;;
36449;SDS011;22475;51.390;7.180;2022-08-01T12:04:55;2.33;;;2.22;;
36449;SDS011;22475;51.390;7.180;2022-08-01T12:07:23;2.58;;;2.38;;
36449;SDS011;22475;51.390;7.180;2022-08-01T12:09:59;2.38;;;2.28;;
36449;SDS011;22475;51.390;7.180;2022-08-01T12:12:29;4.40;;;2.40;;
36449;SDS011;22475;51.390;7.180;2022-08-01T12:14:57;2.30;;;2.20;;
36449;SDS011;22475;51.390;7.180;2022-08-01T12:17:28;1.85;;;1.75;;
36449;SDS011;22475;51.390;7.180;2022-08-01T12:19:57;2.08;;;1.98;;
36449;SDS011;22475;51.390;7.180;2022-08-01T12:22:24;2.10;;;2.00;;
36449;SDS011;22475;51.390;7.180;2022-08-01T12:24:55;2.25;;;2.15;;
36449;SDS011;22475;51.390;7.180;2022-08-01T12:27:26;2.22;;;2.13;;
36449;SDS011;22475;51.390;7.180;2022-08-01T12:29:56;1.63;;;1.52;;
36449;SDS011;22475;51.390;7.180;2022-08-01T12:32:25;1.70;;;1.60;;
36449;SDS011;22475;51.390;7.180;2022-08-01T12:34:55;1.85;;;1.60;;
36449;SDS011;22475;51.390;7.180;2022-08-01T12:37:23;1.80;;;1.70;;
36449;SDS011;22475;51.390;7.180;2022-08-01T12:39:50;2.15;;;1.90;;
36449;SDS011;22475;51.390;7.180;2022-08-01T12:42:17;2.25;;;1.63;;
36449;SDS011;22475;51.390;7.180;2022-08-01T12:44:45;1.65;;;1.55;;
36449;SDS011;22475;51.390;7.180;2022-08-01T12:47:15;1.60;;;1.50;;
36449;SDS011;22475;51.390;7.180;2022-08-01T12:49:43;1.67;;;1.58;;
36449;SDS011;22475;51.390;7.180;2022-08-01T12:52:11;1.55;;;1.45;;
36449;SDS011;22475;51.390;7.180;2022-08-01T12:57:33;1.80;;;1.70;;
36449;SDS011;22475;51.390;7.180;2022-08-01T13:00:04;1.45;;;1.35;;
36449;SDS011;22475;51.390;7.180;2022-08-01T13:02:44;1.83;;;1.73;;
36449;SDS011;22475;51.390;7.180;2022-08-01T13:05:11;1.52;;;1.42;;
36449;SDS011;22475;51.390;7.180;2022-08-01T13:07:43;1.80;;;1.70;;
36449;SDS011;22475;51.390;7.180;2022-08-01T13:10:13;1.75;;;1.65;;
36449;SDS011;22475;51.390;7.180;2022-08-01T13:12:51;1.60;;;1.50;;
36449;SDS011;22475;51.390;7.180;2022-08-01T13:15:27;1.85;;;1.75;;
36449;SDS011;22475;51.390;7.180;2022-08-01T13:17:58;1.45;;;1.35;;
36449;SDS011;22475;51.390;7.180;2022-08-01T13:20:28;1.98;;;1.88;;
36449;SDS011;22475;51.390;7.180;2022-08-01T13:25:46;1.55;;;1.45;;
36449;SDS011;22475;51.390;7.180;2022-08-01T13:28:14;1.50;;;1.40;;
36449;SDS011;22475;51.390;7.180;2022-08-01T13:30:50;1.65;;;1.55;;
36449;SDS011;22475;51.390;7.180;2022-08-01T13:33:22;1.63;;;1.55;;
36449;SDS011;22475;51.390;7.180;2022-08-01T13:35:50;1.48;;;1.38;;
36449;SDS011;22475;51.390;7.180;2022-08-01T13:38:18;1.75;;;1.65;;
36449;SDS011;22475;51.390;7.180;2022-08-01T13:41:05;1.45;;;1.35;;
36449;SDS011;22475;51.390;7.180;2022-08-01T13:43:32;1.05;;;1.05;;
36449;SDS011;22475;51.390;7.180;2022-08-01T13:46:00;1.58;;;1.48;;
36449;SDS011;22475;51.390;7.180;2022-08-01T13:48:30;1.40;;;1.30;;
36449;SDS011;22475;51.390;7.180;2022-08-01T13:50:57;1.70;;;1.42;;
36449;SDS011;22475;51.390;7.180;2022-08-01T13:53:24;1.10;;;1.10;;
36449;SDS011;22475;51.390;7.180;2022-08-01T13:55:51;1.67;;;1.58;;
36449;SDS011;22475;51.390;7.180;2022-08-01T13:58:18;1.83;;;1.73;;
36449;SDS011;22475;51.390;7.180;2022-08-01T14:00:45;1.25;;;1.20;;
36449;SDS011;22475;51.390;7.180;2022-08-01T14:03:12;1.13;;;1.13;;
36449;SDS011;22475;51.390;7.180;2022-08-01T14:05:43;1.30;;;1.20;;
36449;SDS011;22475;51.390;7.180;2022-08-01T14:08:10;1.73;;;1.63;;
36449;SDS011;22475;51.390;7.180;2022-08-01T14:10:37;1.35;;;1.27;;
36449;SDS011;22475;51.390;7.180;2022-08-01T14:13:04;1.40;;;1.38;;
36449;SDS011;22475;51.390;7.180;2022-08-01T14:15:31;1.58;;;1.48;;
36449;SDS011;22475;51.390;7.180;2022-08-01T14:17:58;1.42;;;1.33;;
36449;SDS011;22475;51.390;7.180;2022-08-01T14:20:25;1.45;;;1.35;;
36449;SDS011;22475;51.390;7.180;2022-08-01T14:22:54;1.30;;;1.20;;
36449;SDS011;22475;51.390;7.180;2022-08-01T14:25:20;0.85;;;0.85;;
36449;SDS011;22475;51.390;7.180;2022-08-01T14:27:59;1.60;;;1.50;;
36449;SDS011;22475;51.390;7.180;2022-08-01T14:30:26;1.27;;;1.27;;
36449;SDS011;22475;51.390;7.180;2022-08-01T14:32:53;3.80;;;0.95;;
36449;SDS011;22475;51.390;7.180;2022-08-01T14:35:20;1.52;;;1.42;;
36449;SDS011;22475;51.390;7.180;2022-08-01T14:37:47;1.27;;;1.17;;
36449;SDS011;22475;51.390;7.180;2022-08-01T14:40:15;1.02;;;1.02;;
36449;SDS011;22475;51.390;7.180;2022-08-01T14:42:42;1.40;;;1.30;;
36449;SDS011;22475;51.390;7.180;2022-08-01T14:45:10;1.05;;;1.05;;
36449;SDS011;22475;51.390;7.180;2022-08-01T14:47:39;1.60;;;1.50;;
36449;SDS011;22475;51.390;7.180;2022-08-01T14:50:09;1.13;;;1.02;;
36449;SDS011;22475;51.390;7.180;2022-08-01T14:52:37;1.45;;;1.35;;
36449;SDS011;22475;51.390;7.180;2022-08-01T14:55:06;1.77;;;1.67;;
36449;SDS011;22475;51.390;7.180;2022-08-01T14:57:36;1.10;;;1.10;;
36449;SDS011;22475;51.390;7.180;2022-08-01T15:00:05;1.13;;;1.05;;
36449;SDS011;22475;51.390;7.180;2022-08-01T15:02:35;0.80;;;0.80;;
36449;SDS011;22475;51.390;7.180;2022-08-01T15:05:03;1.50;;;1.23;;
36449;SDS011;22475;51.390;7.180;2022-08-01T15:07:30;1.55;;;1.45;;
36449;SDS011;22475;51.390;7.180;2022-08-01T15:09:57;1.10;;;1.10;;
36449;SDS011;22475;51.390;7.180;2022-08-01T15:12:25;3.20;;;1.20;;
36449;SDS011;22475;51.390;7.180;2022-08-01T15:14:53;0.90;;;0.90;;
36449;SDS011;22475;51.390;7.180;2022-08-01T15:17:21;1.15;;;1.05;;
36449;SDS011;22475;51.390;7.180;2022-08-01T15:19:50;1.17;;;0.88;;
36449;SDS011;22475;51.390;7.180;2022-08-01T15:22:19;1.00;;;1.00;;